Time;durP1;ratioP1;P1;durP2;ratioP2;P2;SDS_P1;SDS_P2;PMS_P1;PMS_P2;Temp;Humidity;BMP_temperature;BMP_pressure;BME280_temperature;BME280_humidity;BME280_pressure;Samples;Min_cycle;Max_cycle;Signal;HPM_P1;HPM_P2
2023/05/19 00:02:07;;;;;;;40.15;25.77;;;;;;;;;;5026013;28;20060;-67
2023/05/19 00:04:34;;;;;;;42.08;26.25;;;;;;;;;;5026409;28;20665;-66
2023/05/19 00:07:02;;;;;;;38.60;26.25;;;;;;;;;;5027850;28;20033;-65
2023/05/19 00:09:30;;;;;;;39.22;25.50;;;;;;;;;;5029042;28;20134;-67
2023/05/19 00:11:56;;;;;;;42.80;25.35;;;;;;;;;;5027967;28;20053;-65
2023/05/19 00:14:25;;;;;;;37.50;25.80;;;;;;;;;;5028824;28;20131;-66
2023/05/19 00:16:52;;;;;;;37.72;24.98;;;;;;;;;;5027934;28;20100;-65
2023/05/19 00:19:18;;;;;;;44.03;26.90;;;;;;;;;;5002619;28;20586;-66
2023/05/19 00:22:06;;;;;;;39.15;25.65;;;;;;;;;;4954176;28;20042;-65
2023/05/19 00:24:39;;;;;;;43.80;27.20;;;;;;;;;;4975000;28;20049;-66
2023/05/19 00:27:05;;;;;;;36.35;24.52;;;;;;;;;;4971347;28;20711;-66
2023/05/19 00:29:32;;;;;;;39.70;25.55;;;;;;;;;;4978634;28;20118;-66
2023/05/19 00:31:58;;;;;;;44.42;25.10;;;;;;;;;;4980289;28;20071;-66
2023/05/19 00:34:25;;;;;;;40.10;25.15;;;;;;;;;;4975549;28;20098;-66
2023/05/19 00:36:52;;;;;;;41.63;25.90;;;;;;;;;;4980858;28;20118;-66
2023/05/19 00:39:18;;;;;;;36.85;25.45;;;;;;;;;;4981851;28;20042;-66
2023/05/19 00:41:45;;;;;;;42.60;26.95;;;;;;;;;;4979015;28;20046;-66
2023/05/19 00:44:11;;;;;;;38.28;23.92;;;;;;;;;;4981367;28;20050;-65
2023/05/19 00:46:38;;;;;;;39.83;25.30;;;;;;;;;;4974829;28;20038;-66
2023/05/19 00:49:05;;;;;;;38.92;24.92;;;;;;;;;;4977563;28;20042;-66
2023/05/19 00:51:31;;;;;;;40.95;25.42;;;;;;;;;;4980296;28;20065;-66
2023/05/19 00:53:58;;;;;;;42.47;25.95;;;;;;;;;;5022071;28;20052;-66
2023/05/19 00:56:25;;;;;;;36.78;25.13;;;;;;;;;;5027512;28;20071;-66
2023/05/19 00:58:52;;;;;;;38.28;24.98;;;;;;;;;;5026186;28;20458;-66
2023/05/19 01:01:20;;;;;;;43.85;25.10;;;;;;;;;;5026626;28;20033;-65
2023/05/19 01:03:47;;;;;;;38.28;24.65;;;;;;;;;;5026293;28;20064;-67
2023/05/19 01:06:34;;;;;;;41.75;25.77;;;;;;;;;;4978879;28;20046;-64
2023/05/19 01:09:00;;;;;;;35.58;24.77;;;;;;;;;;4978308;28;20044;-64
2023/05/19 01:11:27;;;;;;;43.08;25.27;;;;;;;;;;4978642;28;20064;-67
2023/05/19 01:13:54;;;;;;;43.60;24.38;;;;;;;;;;4980073;28;20497;-65
2023/05/19 01:16:39;;;;;;;40.40;25.80;;;;;;;;;;4982601;28;20125;-68
2023/05/19 01:19:09;;;;;;;38.65;24.38;;;;;;;;;;4987190;28;20116;-67
2023/05/19 01:21:54;;;;;;;38.85;24.00;;;;;;;;;;4986157;28;20196;-67
2023/05/19 01:24:21;;;;;;;43.80;25.00;;;;;;;;;;4986346;28;20054;-66
2023/05/19 01:27:06;;;;;;;37.60;24.30;;;;;;;;;;4982198;28;20050;-63
2023/05/19 01:29:32;;;;;;;42.67;24.63;;;;;;;;;;4950900;28;20042;-65
2023/05/19 01:32:00;;;;;;;39.72;24.88;;;;;;;;;;4963880;28;20038;-67
2023/05/19 01:34:27;;;;;;;42.85;26.13;;;;;;;;;;4972064;28;20043;-64
2023/05/19 01:36:57;;;;;;;39.50;25.40;;;;;;;;;;4946913;28;20113;-66
2023/05/19 01:39:24;;;;;;;41.17;23.73;;;;;;;;;;4972386;28;20043;-67
2023/05/19 01:41:52;;;;;;;40.35;24.70;;;;;;;;;;4981451;28;20065;-64
2023/05/19 01:44:18;;;;;;;37.15;24.02;;;;;;;;;;5000803;28;20142;-65
2023/05/19 01:46:45;;;;;;;38.53;24.08;;;;;;;;;;5011553;28;20080;-66
2023/05/19 01:49:12;;;;;;;38.40;24.00;;;;;;;;;;5010176;28;20117;-64
2023/05/19 01:51:40;;;;;;;40.53;24.55;;;;;;;;;;5010793;28;20057;-64
2023/05/19 01:54:06;;;;;;;44.13;25.33;;;;;;;;;;5012503;28;20806;-63
2023/05/19 01:56:49;;;;;;;42.17;23.58;;;;;;;;;;5011881;28;20931;-65
2023/05/19 01:59:16;;;;;;;;;;;;;;;;;;5009774;28;20049;-66
2023/05/19 02:01:42;;;;;;;40.47;21.70;;;;;;;;;;5009374;28;20008;-66
2023/05/19 02:04:13;;;;;;;34.05;20.77;;;;;;;;;;5011746;28;20134;-64
2023/05/19 02:07:03;;;;;;;36.28;21.48;;;;;;;;;;5008109;28;20093;-64
2023/05/19 02:09:39;;;;;;;38.58;21.88;;;;;;;;;;5001967;28;20049;-65
2023/05/19 02:12:08;;;;;;;37.03;20.55;;;;;;;;;;5010040;28;20319;-65
2023/05/19 02:14:57;;;;;;;29.98;19.92;;;;;;;;;;5009402;28;20057;-64
2023/05/19 02:17:28;;;;;;;36.47;21.30;;;;;;;;;;5008736;28;20046;-63
2023/05/19 02:19:54;;;;;;;32.22;19.52;;;;;;;;;;5009282;28;20041;-66
2023/05/19 02:22:21;;;;;;;35.42;19.65;;;;;;;;;;5010292;28;20038;-65
2023/05/19 02:24:50;;;;;;;38.83;20.27;;;;;;;;;;5008117;28;20072;-65
2023/05/19 02:27:17;;;;;;;34.97;19.85;;;;;;;;;;5008454;28;20037;-65
2023/05/19 02:29:44;;;;;;;36.42;20.20;;;;;;;;;;5007177;28;20042;-65
2023/05/19 02:32:11;;;;;;;32.40;18.80;;;;;;;;;;5010295;28;20128;-64
2023/05/19 02:34:37;;;;;;;28.65;17.98;;;;;;;;;;5008425;28;20074;-64
2023/05/19 02:37:04;;;;;;;32.30;18.98;;;;;;;;;;5009003;28;20818;-64
2023/05/19 02:39:33;;;;;;;36.90;18.73;;;;;;;;;;5005927;28;20143;-65
2023/05/19 02:42:00;;;;;;;33.50;19.10;;;;;;;;;;5008667;28;20049;-65
2023/05/19 02:44:27;;;;;;;31.60;18.42;;;;;;;;;;5008072;28;20033;-65
2023/05/19 02:46:54;;;;;;;30.77;17.77;;;;;;;;;;5009088;28;20115;-62
2023/05/19 02:49:20;;;;;;;33.08;17.83;;;;;;;;;;5009769;28;20061;-64
2023/05/19 02:51:47;;;;;;;34.65;17.73;;;;;;;;;;5008415;28;20176;-61
2023/05/19 02:54:13;;;;;;;31.98;17.30;;;;;;;;;;5010176;28;20062;-64
2023/05/19 02:56:40;;;;;;;29.70;17.25;;;;;;;;;;5008115;28;20069;-65
2023/05/19 02:59:06;;;;;;;29.45;16.08;;;;;;;;;;5007796;28;20033;-65
2023/05/19 03:01:33;;;;;;;27.80;16.17;;;;;;;;;;5009151;28;20502;-64
2023/05/19 03:03:59;;;;;;;30.25;16.38;;;;;;;;;;5010386;28;20042;-62
2023/05/19 03:06:27;;;;;;;28.80;16.40;;;;;;;;;;5007178;28;20042;-63
2023/05/19 03:08:53;;;;;;;28.95;15.20;;;;;;;;;;5012259;28;20445;-65
2023/05/19 03:11:20;;;;;;;27.52;15.27;;;;;;;;;;5013136;28;20050;-64
2023/05/19 03:13:46;;;;;;;30.10;14.73;;;;;;;;;;5028334;28;20049;-64
2023/05/19 03:16:13;;;;;;;33.67;15.13;;;;;;;;;;5029800;28;20029;-65
2023/05/19 03:18:40;;;;;;;25.42;15.27;;;;;;;;;;5028270;28;20951;-64
2023/05/19 03:21:07;;;;;;;29.65;14.52;;;;;;;;;;5028894;28;20044;-64
2023/05/19 03:23:33;;;;;;;26.35;14.32;;;;;;;;;;5029919;28;20044;-64
2023/05/19 03:26:00;;;;;;;24.25;13.65;;;;;;;;;;5028372;28;20038;-65
2023/05/19 03:28:26;;;;;;;24.80;13.57;;;;;;;;;;5027299;28;20033;-66
2023/05/19 03:30:53;;;;;;;28.35;13.45;;;;;;;;;;5029214;28;20048;-65
2023/05/19 03:33:19;;;;;;;30.10;14.43;;;;;;;;;;5027430;28;20514;-65
2023/05/19 03:35:46;;;;;;;26.50;13.85;;;;;;;;;;5027795;28;21038;-65
2023/05/19 03:38:13;;;;;;;23.10;13.15;;;;;;;;;;5028464;28;20041;-64
2023/05/19 03:40:40;;;;;;;27.55;13.20;;;;;;;;;;5027894;28;20044;-64
2023/05/19 03:43:07;;;;;;;24.77;13.05;;;;;;;;;;5030107;28;20041;-64
2023/05/19 03:45:33;;;;;;;27.88;14.27;;;;;;;;;;5028075;28;20048;-64
2023/05/19 03:48:00;;;;;;;29.77;14.40;;;;;;;;;;5026264;28;20044;-64
2023/05/19 03:50:30;;;;;;;28.00;13.73;;;;;;;;;;5028095;28;20079;-65
2023/05/19 03:52:57;;;;;;;30.65;14.70;;;;;;;;;;5028045;28;20045;-63
2023/05/19 03:55:24;;;;;;;29.30;14.98;;;;;;;;;;5027068;28;20052;-66
2023/05/19 03:57:54;;;;;;;29.08;13.77;;;;;;;;;;5027062;28;20037;-66
2023/05/19 04:00:21;;;;;;;22.13;13.23;;;;;;;;;;5029660;28;20033;-63
2023/05/19 04:02:48;;;;;;;25.52;13.60;;;;;;;;;;5032157;28;20599;-63
2023/05/19 04:05:15;;;;;;;25.80;13.25;;;;;;;;;;5033734;28;20045;-64
2023/05/19 04:07:41;;;;;;;30.45;13.40;;;;;;;;;;5028376;28;20049;-64
2023/05/19 04:10:08;;;;;;;42.65;13.57;;;;;;;;;;5030843;28;20107;-64
2023/05/19 04:12:35;;;;;;;20.15;12.10;;;;;;;;;;5028018;28;20107;-64
2023/05/19 04:15:01;;;;;;;25.27;12.70;;;;;;;;;;5031461;28;20037;-63
2023/05/19 04:17:28;;;;;;;21.65;11.93;;;;;;;;;;5027853;28;20060;-64
2023/05/19 04:19:55;;;;;;;20.85;12.65;;;;;;;;;;5028369;28;20095;-66
2023/05/19 04:22:21;;;;;;;22.58;11.43;;;;;;;;;;5027303;28;20056;-65
2023/05/19 04:24:49;;;;;;;20.48;12.25;;;;;;;;;;5028753;28;20044;-63
2023/05/19 04:27:16;;;;;;;21.10;12.32;;;;;;;;;;5027313;28;20045;-64
2023/05/19 04:29:44;;;;;;;22.85;11.30;;;;;;;;;;5027311;28;20041;-65
2023/05/19 04:32:15;;;;;;;23.85;11.85;;;;;;;;;;5027753;28;20044;-64
2023/05/19 04:34:44;;;;;;;20.55;12.27;;;;;;;;;;5026730;28;20216;-63
2023/05/19 04:37:15;;;;;;;20.70;11.45;;;;;;;;;;5027908;28;20100;-63
2023/05/19 04:39:43;;;;;;;25.02;11.27;;;;;;;;;;5027205;28;20088;-64
2023/05/19 04:42:10;;;;;;;25.58;11.43;;;;;;;;;;5025992;28;20042;-66
2023/05/19 04:44:39;;;;;;;26.98;10.63;;;;;;;;;;5026980;28;20560;-65
2023/05/19 04:47:08;;;;;;;20.02;10.88;;;;;;;;;;5029282;28;20042;-63
2023/05/19 04:49:37;;;;;;;24.83;10.82;;;;;;;;;;5028476;28;20841;-65
2023/05/19 04:52:06;;;;;;;23.80;11.45;;;;;;;;;;5034233;28;20128;-66
2023/05/19 04:54:33;;;;;;;21.92;10.95;;;;;;;;;;5032242;28;20072;-62
2023/05/19 04:56:59;;;;;;;24.50;11.68;;;;;;;;;;5031999;28;20049;-63
2023/05/19 04:59:26;;;;;;;22.80;10.98;;;;;;;;;;5032924;28;20779;-65
2023/05/19 05:01:55;;;;;;;21.23;10.52;;;;;;;;;;5013992;28;21273;-63
2023/05/19 05:04:21;;;;;;;23.25;10.88;;;;;;;;;;5031383;28;20077;-65
2023/05/19 05:06:48;;;;;;;21.42;11.10;;;;;;;;;;5031210;28;20821;-63
2023/05/19 05:09:15;;;;;;;22.58;10.57;;;;;;;;;;5031010;28;20046;-62
2023/05/19 05:11:42;;;;;;;15.18;9.32;;;;;;;;;;5030947;28;20069;-63
2023/05/19 05:14:09;;;;;;;21.48;10.15;;;;;;;;;;5015145;28;20064;-63
2023/05/19 05:16:35;;;;;;;21.50;10.07;;;;;;;;;;5028710;28;20068;-63
2023/05/19 05:19:02;;;;;;;18.67;9.85;;;;;;;;;;5032382;28;20064;-64
2023/05/19 05:21:30;;;;;;;21.33;9.25;;;;;;;;;;5015863;28;20033;-68
2023/05/19 05:23:57;;;;;;;20.85;9.80;;;;;;;;;;5032389;28;21353;-62
2023/05/19 05:26:28;;;;;;;20.75;8.35;;;;;;;;;;5013197;28;20098;-62
2023/05/19 05:28:54;;;;;;;20.02;10.05;;;;;;;;;;5031192;28;20065;-62
2023/05/19 05:31:21;;;;;;;18.45;8.90;;;;;;;;;;5032109;28;20044;-66
2023/05/19 05:33:48;;;;;;;20.38;10.10;;;;;;;;;;5030787;28;20048;-63
2023/05/19 05:36:14;;;;;;;20.98;8.88;;;;;;;;;;5031614;28;20045;-64
2023/05/19 05:38:41;;;;;;;16.52;9.30;;;;;;;;;;5026487;28;20053;-64
2023/05/19 05:41:07;;;;;;;17.20;8.98;;;;;;;;;;5021466;28;20069;-63
2023/05/19 05:43:34;;;;;;;19.85;8.43;;;;;;;;;;5031156;28;20112;-63
2023/05/19 05:46:00;;;;;;;17.70;8.13;;;;;;;;;;5025422;28;20041;-64
2023/05/19 05:48:28;;;;;;;15.00;7.90;;;;;;;;;;5031228;28;20100;-65
2023/05/19 05:50:56;;;;;;;14.20;8.38;;;;;;;;;;5013137;28;20044;-64
2023/05/19 05:53:25;;;;;;;16.98;7.93;;;;;;;;;;5031150;28;20053;-65
2023/05/19 05:55:52;;;;;;;14.68;7.00;;;;;;;;;;5029754;28;20046;-63
2023/05/19 05:58:20;;;;;;;21.45;8.15;;;;;;;;;;5031914;28;20033;-65
2023/05/19 06:00:50;;;;;;;14.00;7.68;;;;;;;;;;5031182;28;20044;-62
2023/05/19 06:03:16;;;;;;;14.43;6.78;;;;;;;;;;5025815;28;20094;-64
2023/05/19 06:05:43;;;;;;;18.52;7.75;;;;;;;;;;5031084;28;21576;-64
2023/05/19 06:08:10;;;;;;;14.55;7.38;;;;;;;;;;5032628;28;20036;-65
2023/05/19 06:10:40;;;;;;;17.25;7.50;;;;;;;;;;5032410;28;20053;-62
2023/05/19 06:13:07;;;;;;;14.40;7.22;;;;;;;;;;5023234;28;20136;-62
2023/05/19 06:15:33;;;;;;;12.25;7.18;;;;;;;;;;5031503;28;20060;-63
2023/05/19 06:18:00;;;;;;;17.52;6.97;;;;;;;;;;5033290;28;20041;-62
2023/05/19 06:20:26;;;;;;;16.65;7.53;;;;;;;;;;5032460;28;20040;-64
2023/05/19 06:22:53;;;;;;;15.27;7.30;;;;;;;;;;5026565;28;20128;-62
2023/05/19 06:25:19;;;;;;;15.20;6.40;;;;;;;;;;5031193;28;20127;-62
2023/05/19 06:27:46;;;;;;;12.32;5.90;;;;;;;;;;5032346;28;20049;-64
2023/05/19 06:30:13;;;;;;;16.70;7.55;;;;;;;;;;5032024;28;20382;-64
2023/05/19 06:32:39;;;;;;;15.55;6.82;;;;;;;;;;5030402;28;20049;-64
2023/05/19 06:35:06;;;;;;;16.42;6.85;;;;;;;;;;5008800;28;20076;-65
2023/05/19 06:37:33;;;;;;;14.30;6.25;;;;;;;;;;5030299;28;20048;-63
2023/05/19 06:39:59;;;;;;;11.98;6.40;;;;;;;;;;5014235;28;20041;-64
2023/05/19 06:42:26;;;;;;;14.32;6.40;;;;;;;;;;5029503;28;20053;-63
2023/05/19 06:44:53;;;;;;;16.05;6.60;;;;;;;;;;5030110;28;20198;-67
2023/05/19 06:47:19;;;;;;;13.68;6.35;;;;;;;;;;5011909;28;20169;-64
2023/05/19 06:49:49;;;;;;;14.50;6.68;;;;;;;;;;5028734;28;20037;-64
2023/05/19 06:52:32;;;;;;;12.68;6.60;;;;;;;;;;4980978;28;20402;-64
2023/05/19 06:54:59;;;;;;;21.23;6.32;;;;;;;;;;4983267;28;20154;-65
2023/05/19 06:57:25;;;;;;;11.05;5.85;;;;;;;;;;4964070;28;20045;-63
2023/05/19 06:59:52;;;;;;;14.45;6.78;;;;;;;;;;4981685;28;20046;-64
2023/05/19 07:02:18;;;;;;;14.43;7.38;;;;;;;;;;4983926;28;21008;-62
2023/05/19 07:04:46;;;;;;;11.38;6.68;;;;;;;;;;4981560;28;20487;-63
2023/05/19 07:07:12;;;;;;;17.65;7.20;;;;;;;;;;4983328;28;20096;-64
2023/05/19 07:09:39;;;;;;;13.48;6.72;;;;;;;;;;4981537;28;20209;-62
2023/05/19 07:12:06;;;;;;;17.90;7.28;;;;;;;;;;4982753;28;20128;-63
2023/05/19 07:14:32;;;;;;;12.15;7.00;;;;;;;;;;4964894;28;20061;-65
2023/05/19 07:16:59;;;;;;;13.52;7.15;;;;;;;;;;4983634;28;20363;-65
2023/05/19 07:19:25;;;;;;;15.95;7.38;;;;;;;;;;4985778;28;21083;-64
2023/05/19 07:21:53;;;;;;;19.00;7.45;;;;;;;;;;4985036;28;20052;-64
2023/05/19 07:24:20;;;;;;;18.42;7.35;;;;;;;;;;4985070;28;20955;-64
2023/05/19 07:26:47;;;;;;;18.83;7.20;;;;;;;;;;4964131;28;20043;-64
2023/05/19 07:29:14;;;;;;;17.17;7.60;;;;;;;;;;4972950;28;20114;-64
2023/05/19 07:31:41;;;;;;;12.73;6.25;;;;;;;;;;5010504;28;20114;-63
2023/05/19 07:34:08;;;;;;;25.08;7.75;;;;;;;;;;5014739;28;20057;-64
2023/05/19 07:36:34;;;;;;;18.02;6.95;;;;;;;;;;5018462;28;20046;-64
2023/05/19 07:39:01;;;;;;;18.10;7.45;;;;;;;;;;5010941;28;20108;-62
2023/05/19 07:41:28;;;;;;;12.45;6.85;;;;;;;;;;5011567;28;20040;-62
2023/05/19 07:43:54;;;;;;;15.40;6.75;;;;;;;;;;5010962;28;20042;-63
2023/05/19 07:46:21;;;;;;;17.73;7.50;;;;;;;;;;5010587;28;20406;-64
2023/05/19 07:48:47;;;;;;;14.32;6.38;;;;;;;;;;5010488;28;20092;-65
2023/05/19 07:51:15;;;;;;;14.43;7.18;;;;;;;;;;5014273;28;20046;-63
2023/05/19 07:53:42;;;;;;;13.63;6.10;;;;;;;;;;5007188;28;20119;-62
2023/05/19 07:56:08;;;;;;;17.40;7.55;;;;;;;;;;5010344;28;20069;-63
2023/05/19 07:58:35;;;;;;;15.43;6.85;;;;;;;;;;5008255;28;20038;-63
2023/05/19 08:01:01;;;;;;;14.73;6.93;;;;;;;;;;5019228;28;20164;-64
2023/05/19 08:03:29;;;;;;;15.30;7.53;;;;;;;;;;5020795;28;20453;-64
2023/05/19 08:05:55;;;;;;;14.98;7.00;;;;;;;;;;5010920;28;20136;-64
2023/05/19 08:08:22;;;;;;;16.10;7.55;;;;;;;;;;5022668;28;20920;-63
2023/05/19 08:10:49;;;;;;;13.35;6.38;;;;;;;;;;5000522;28;20045;-65
2023/05/19 08:13:15;;;;;;;17.52;6.80;;;;;;;;;;5025055;28;20112;-63
2023/05/19 08:15:42;;;;;;;13.60;7.13;;;;;;;;;;5030164;28;20049;-62
2023/05/19 08:18:08;;;;;;;15.25;6.88;;;;;;;;;;5032671;28;20040;-63
2023/05/19 08:20:35;;;;;;;12.90;6.90;;;;;;;;;;5023563;28;20041;-63
2023/05/19 08:23:02;;;;;;;17.63;8.30;;;;;;;;;;5023025;28;20513;-64
2023/05/19 08:25:28;;;;;;;15.23;7.35;;;;;;;;;;5027473;28;20033;-63
2023/05/19 08:27:55;;;;;;;18.25;8.20;;;;;;;;;;5029885;28;20041;-63
2023/05/19 08:30:22;;;;;;;19.02;7.93;;;;;;;;;;5027956;28;20575;-63
2023/05/19 08:32:48;;;;;;;15.38;7.65;;;;;;;;;;5028783;28;20162;-63
2023/05/19 08:35:15;;;;;;;15.70;8.18;;;;;;;;;;5029827;28;20615;-64
2023/05/19 08:37:42;;;;;;;16.67;8.13;;;;;;;;;;5025518;28;20101;-61
2023/05/19 08:40:11;;;;;;;15.50;7.32;;;;;;;;;;5028089;28;20065;-63
2023/05/19 08:42:38;;;;;;;18.40;7.93;;;;;;;;;;5027888;28;20430;-64
2023/05/19 08:45:05;;;;;;;21.77;8.18;;;;;;;;;;5028495;28;20072;-62
2023/05/19 08:47:32;;;;;;;19.27;8.02;;;;;;;;;;5010593;28;21399;-65
2023/05/19 08:50:06;;;;;;;20.52;8.90;;;;;;;;;;5020441;28;20038;-62
2023/05/19 08:52:32;;;;;;;;;;;;;;;;;;5029019;28;20067;-63
2023/05/19 08:55:02;;;;;;;20.38;8.80;;;;;;;;;;5028433;28;19932;-65
2023/05/19 08:57:28;;;;;;;18.00;8.93;;;;;;;;;;5020673;28;20038;-63
2023/05/19 08:59:55;;;;;;;21.58;8.95;;;;;;;;;;5027417;28;20429;-62
2023/05/19 09:02:22;;;;;;;20.98;9.30;;;;;;;;;;5027390;28;20041;-63
2023/05/19 09:04:49;;;;;;;26.50;9.52;;;;;;;;;;5029110;28;20036;-64
2023/05/19 09:07:16;;;;;;;24.02;9.07;;;;;;;;;;5025123;28;20524;-62
2023/05/19 09:09:43;;;;;;;19.42;9.82;;;;;;;;;;5026784;28;20037;-63
2023/05/19 09:12:10;;;;;;;21.40;9.63;;;;;;;;;;5027394;28;20152;-63
2023/05/19 09:14:37;;;;;;;19.25;9.32;;;;;;;;;;5024853;28;20926;-63
2023/05/19 09:17:05;;;;;;;22.40;9.90;;;;;;;;;;5010465;28;20053;-61
2023/05/19 09:19:31;;;;;;;17.98;9.13;;;;;;;;;;5027646;28;20034;-63
2023/05/19 09:21:59;;;;;;;22.30;10.05;;;;;;;;;;5029129;28;20045;-64
2023/05/19 09:24:26;;;;;;;23.75;10.32;;;;;;;;;;5028303;28;20040;-64
2023/05/19 09:26:58;;;;;;;23.08;9.90;;;;;;;;;;5026934;28;20033;-62
2023/05/19 09:29:25;;;;;;;21.30;9.98;;;;;;;;;;5010864;28;20049;-62
2023/05/19 09:31:53;;;;;;;22.67;10.15;;;;;;;;;;5021991;28;20075;-64
2023/05/19 09:34:21;;;;;;;20.38;10.20;;;;;;;;;;5027040;28;20148;-64
2023/05/19 09:36:52;;;;;;;28.70;10.50;;;;;;;;;;5028366;28;20044;-62
2023/05/19 09:39:19;;;;;;;24.42;10.75;;;;;;;;;;5031989;28;20409;-62
2023/05/19 09:41:46;;;;;;;26.60;10.73;;;;;;;;;;5031211;28;20513;-63
2023/05/19 09:44:22;;;;;;;19.52;10.38;;;;;;;;;;5033859;28;20037;-62
2023/05/19 09:46:49;;;;;;;25.17;11.30;;;;;;;;;;5031078;28;20041;-63
2023/05/19 09:49:23;;;;;;;24.75;10.77;;;;;;;;;;5032183;28;20074;-60
2023/05/19 09:51:56;;;;;;;21.77;11.45;;;;;;;;;;5031010;28;20363;-62
2023/05/19 09:54:24;;;;;;;27.17;11.15;;;;;;;;;;5032727;28;20053;-60
2023/05/19 09:57:00;;;;;;;22.85;11.60;;;;;;;;;;5030578;28;20037;-64
2023/05/19 09:59:28;;;;;;;18.92;11.38;;;;;;;;;;5031699;28;20033;-63
2023/05/19 10:01:55;;;;;;;29.52;11.95;;;;;;;;;;5012274;28;20037;-63
2023/05/19 10:04:23;;;;;;;30.83;12.80;;;;;;;;;;5029845;28;20128;-63
2023/05/19 10:06:53;;;;;;;28.52;12.73;;;;;;;;;;5030683;28;20049;-61
2023/05/19 10:09:26;;;;;;;23.23;11.90;;;;;;;;;;5030218;28;20032;-64
2023/05/19 10:11:53;;;;;;;31.75;12.20;;;;;;;;;;5030614;28;20406;-64
2023/05/19 10:14:23;;;;;;;26.23;13.10;;;;;;;;;;5030635;28;20476;-63
2023/05/19 10:16:57;;;;;;;27.48;12.50;;;;;;;;;;5029266;28;20457;-62
2023/05/19 10:19:25;;;;;;;25.85;12.57;;;;;;;;;;5029906;28;20059;-63
2023/05/19 10:21:52;;;;;;;35.72;12.48;;;;;;;;;;5030297;28;20428;-62
2023/05/19 10:24:20;;;;;;;26.05;13.38;;;;;;;;;;5029875;28;20029;-62
2023/05/19 10:26:49;;;;;;;25.15;13.60;;;;;;;;;;5031234;28;20065;-64
2023/05/19 10:29:18;;;;;;;25.42;13.15;;;;;;;;;;5031419;28;20090;-61
2023/05/19 10:31:45;;;;;;;28.00;13.93;;;;;;;;;;5028811;28;20422;-63
2023/05/19 10:34:12;;;;;;;27.10;13.82;;;;;;;;;;5031315;28;20045;-61
2023/05/19 10:36:49;;;;;;;25.98;14.02;;;;;;;;;;5030333;28;20037;-65
2023/05/19 10:39:16;;;;;;;28.55;14.05;;;;;;;;;;5030558;28;20454;-62
2023/05/19 10:41:45;;;;;;;29.40;13.75;;;;;;;;;;5028745;28;20102;-62
2023/05/19 10:44:35;;;;;;;26.25;13.75;;;;;;;;;;5030922;28;20045;-61
2023/05/19 10:47:01;;;;;;;34.00;14.30;;;;;;;;;;5018673;28;20130;-64
2023/05/19 10:49:28;;;;;;;27.85;13.95;;;;;;;;;;5030178;28;20033;-63
2023/05/19 10:51:56;;;;;;;26.08;13.77;;;;;;;;;;5022660;28;20402;-62
2023/05/19 10:54:42;;;;;;;27.42;13.18;;;;;;;;;;5031916;28;20041;-64
2023/05/19 10:57:09;;;;;;;30.65;14.00;;;;;;;;;;5030265;28;20045;-64
2023/05/19 10:59:36;;;;;;;29.35;14.02;;;;;;;;;;5030012;28;20036;-64
2023/05/19 11:02:04;;;;;;;29.52;14.02;;;;;;;;;;5030035;28;20517;-63
2023/05/19 11:04:40;;;;;;;29.85;14.70;;;;;;;;;;5032359;28;20478;-63
2023/05/19 11:07:09;;;;;;;23.52;13.90;;;;;;;;;;5027265;28;20076;-64
2023/05/19 11:09:42;;;;;;;30.50;14.18;;;;;;;;;;5028554;28;20064;-63
2023/05/19 11:12:09;;;;;;;;;;;;;;;;;;5029262;28;20056;-62
2023/05/19 11:14:36;;;;;;;32.63;14.35;;;;;;;;;;5027493;28;19931;-63
2023/05/19 11:17:04;;;;;;;36.30;14.52;;;;;;;;;;5029760;28;20201;-64
2023/05/19 11:19:36;;;;;;;29.42;15.43;;;;;;;;;;5027603;28;20393;-64
2023/05/19 11:22:13;;;;;;;30.03;14.80;;;;;;;;;;5031187;28;20048;-59
2023/05/19 11:24:44;;;;;;;30.15;15.18;;;;;;;;;;5029793;28;20809;-60
2023/05/19 11:27:17;;;;;;;32.17;15.57;;;;;;;;;;5030031;28;20053;-60
2023/05/19 11:29:44;;;;;;;35.35;15.70;;;;;;;;;;5031864;28;20473;-58
2023/05/19 11:32:11;;;;;;;37.38;15.27;;;;;;;;;;5030101;28;21664;-58
2023/05/19 11:34:37;;;;;;;32.58;15.98;;;;;;;;;;5029982;28;20045;-62
2023/05/19 11:37:04;;;;;;;35.15;14.93;;;;;;;;;;5031446;28;20041;-62
2023/05/19 11:39:32;;;;;;;33.53;16.33;;;;;;;;;;5007542;28;20045;-61
2023/05/19 11:41:58;;;;;;;34.70;15.45;;;;;;;;;;5031529;28;20041;-64
2023/05/19 11:44:26;;;;;;;34.88;15.77;;;;;;;;;;5027470;28;20044;-63
2023/05/19 11:46:53;;;;;;;35.65;15.85;;;;;;;;;;5026860;28;20033;-62
2023/05/19 11:49:20;;;;;;;29.80;15.32;;;;;;;;;;5029997;28;20040;-64
2023/05/19 11:51:46;;;;;;;34.10;16.30;;;;;;;;;;5029047;28;20155;-63
2023/05/19 11:54:13;;;;;;;33.58;15.55;;;;;;;;;;5028067;28;20045;-61
2023/05/19 11:56:40;;;;;;;32.72;15.20;;;;;;;;;;5028111;28;20041;-63
2023/05/19 11:59:07;;;;;;;32.33;17.65;;;;;;;;;;5027376;28;20978;-62
2023/05/19 12:01:34;;;;;;;31.85;16.05;;;;;;;;;;5026794;28;20044;-59
2023/05/19 12:04:01;;;;;;;30.95;16.80;;;;;;;;;;5028708;28;20033;-60
2023/05/19 12:06:28;;;;;;;36.67;16.85;;;;;;;;;;5025099;28;20033;-60
2023/05/19 12:08:55;;;;;;;32.72;16.42;;;;;;;;;;5029249;28;20049;-61
2023/05/19 12:11:23;;;;;;;31.42;15.70;;;;;;;;;;5029827;28;20518;-64
2023/05/19 12:13:53;;;;;;;35.05;16.33;;;;;;;;;;5027838;28;20111;-61
2023/05/19 12:16:20;;;;;;;33.33;16.65;;;;;;;;;;5027806;28;20194;-61
2023/05/19 12:18:47;;;;;;;37.05;16.02;;;;;;;;;;5028992;28;20918;-62
2023/05/19 12:21:14;;;;;;;35.45;16.80;;;;;;;;;;5026883;28;20154;-61
2023/05/19 12:23:42;;;;;;;34.58;16.25;;;;;;;;;;5028837;28;20077;-61
2023/05/19 12:26:09;;;;;;;37.33;15.63;;;;;;;;;;5029480;28;20447;-63
2023/05/19 12:28:36;;;;;;;40.75;15.35;;;;;;;;;;5025635;28;20057;-63
2023/05/19 12:31:04;;;;;;;28.23;15.30;;;;;;;;;;5024725;28;20029;-62
2023/05/19 12:33:33;;;;;;;32.83;15.20;;;;;;;;;;5027002;28;20089;-64
2023/05/19 12:36:01;;;;;;;30.00;14.73;;;;;;;;;;5026276;28;20037;-61
2023/05/19 12:38:28;;;;;;;32.88;15.82;;;;;;;;;;5027145;28;20041;-60
2023/05/19 12:40:58;;;;;;;36.33;15.32;;;;;;;;;;5029059;28;20037;-62
2023/05/19 12:43:25;;;;;;;33.63;15.20;;;;;;;;;;5029359;28;20429;-61
2023/05/19 12:45:52;;;;;;;32.28;15.65;;;;;;;;;;5028250;28;20040;-62
2023/05/19 12:48:21;;;;;;;36.10;15.77;;;;;;;;;;5030173;28;20505;-63
2023/05/19 12:50:48;;;;;;;31.50;15.40;;;;;;;;;;5030050;28;20052;-64
2023/05/19 12:53:15;;;;;;;32.22;15.55;;;;;;;;;;5031064;28;20389;-61
2023/05/19 12:55:42;;;;;;;33.13;15.48;;;;;;;;;;5030598;28;20539;-61
2023/05/19 12:58:10;;;;;;;30.83;14.77;;;;;;;;;;5014020;28;20041;-62
2023/05/19 13:00:40;;;;;;;31.10;15.52;;;;;;;;;;5031923;28;20041;-62
2023/05/19 13:03:08;;;;;;;30.52;14.70;;;;;;;;;;5035395;28;20041;-61
2023/05/19 13:05:38;;;;;;;33.78;16.17;;;;;;;;;;5036329;28;20037;-62
2023/05/19 13:08:09;;;;;;;32.40;15.65;;;;;;;;;;5039259;28;20049;-63
2023/05/19 13:10:36;;;;;;;31.60;16.30;;;;;;;;;;5037623;28;20041;-65
2023/05/19 13:13:03;;;;;;;35.08;16.08;;;;;;;;;;5033658;28;20100;-63
2023/05/19 13:15:33;;;;;;;34.40;15.25;;;;;;;;;;5035178;28;20055;-63
2023/05/19 13:18:00;;;;;;;30.13;14.98;;;;;;;;;;5033382;28;20061;-64
2023/05/19 13:20:27;;;;;;;27.02;14.98;;;;;;;;;;5031406;28;20042;-62
2023/05/19 13:22:54;;;;;;;28.00;14.93;;;;;;;;;;5031787;28;20033;-64
2023/05/19 13:25:21;;;;;;;35.72;16.50;;;;;;;;;;5030814;28;20751;-64
2023/05/19 13:27:48;;;;;;;35.67;16.63;;;;;;;;;;5028131;28;20042;-61
2023/05/19 13:30:15;;;;;;;34.13;18.08;;;;;;;;;;5028510;28;20052;-62
2023/05/19 13:32:41;;;;;;;37.45;18.33;;;;;;;;;;5031484;28;20180;-64
2023/05/19 13:35:11;;;;;;;46.38;19.27;;;;;;;;;;5031569;28;20513;-61
2023/05/19 13:37:38;;;;;;;42.45;19.55;;;;;;;;;;5031291;28;20063;-62
2023/05/19 13:40:05;;;;;;;41.00;20.52;;;;;;;;;;5031119;28;20387;-62
2023/05/19 13:42:32;;;;;;;36.13;20.83;;;;;;;;;;5031792;28;20036;-63
2023/05/19 13:44:59;;;;;;;46.50;21.30;;;;;;;;;;5032187;28;20108;-60
2023/05/19 13:47:25;;;;;;;43.60;21.75;;;;;;;;;;5030418;28;20037;-60
2023/05/19 13:49:52;;;;;;;46.95;23.35;;;;;;;;;;5033910;28;20519;-59
2023/05/19 13:52:20;;;;;;;44.03;23.15;;;;;;;;;;5031708;28;20125;-59
2023/05/19 13:54:47;;;;;;;45.55;23.67;;;;;;;;;;5032797;28;20137;-60
2023/05/19 13:57:14;;;;;;;62.42;25.30;;;;;;;;;;5032046;28;20973;-64
2023/05/19 13:59:41;;;;;;;46.90;24.23;;;;;;;;;;5030217;28;20045;-58
2023/05/19 14:02:08;;;;;;;48.58;25.25;;;;;;;;;;5032286;28;20037;-60
2023/05/19 14:04:38;;;;;;;53.97;25.70;;;;;;;;;;5031702;28;20034;-63
2023/05/19 14:07:09;;;;;;;53.35;26.20;;;;;;;;;;5031189;28;20049;-61
2023/05/19 14:09:35;;;;;;;55.70;26.27;;;;;;;;;;5021804;28;20450;-62
2023/05/19 14:12:02;;;;;;;58.35;27.30;;;;;;;;;;5013859;28;20625;-60
2023/05/19 14:14:29;;;;;;;50.95;28.38;;;;;;;;;;5032291;28;20060;-61
2023/05/19 14:16:55;;;;;;;83.55;30.55;;;;;;;;;;5031136;28;20819;-60
2023/05/19 14:19:22;;;;;;;58.90;29.23;;;;;;;;;;5029752;28;20045;-61
2023/05/19 14:21:50;;;;;;;60.97;29.02;;;;;;;;;;5030934;28;20051;-62
2023/05/19 14:24:16;;;;;;;56.97;30.30;;;;;;;;;;5013260;28;20044;-61
2023/05/19 14:26:43;;;;;;;63.58;31.20;;;;;;;;;;5032340;28;20033;-62